Battle Creek, MI (49014)

5:37 AM EST on December 07, 2016 (GMT -0500)
Wattles Park | | Change Station
Active Advisory: Winter Weather Advisory

Elev 903 ft 42.32 °N, 85.11 °W | Updated 8 seconds ago

Overcast
Overcast
30.0 °F
Feels Like 22 °F
N
8.0
Wind Variable Wind from SW
Gusts 15.0 mph

Today
High -- | Low -- °F
--% Chance of Precip.
Yesterday
High -- | Low -- °F
Precip. -- in
Pressure 29.95 in
Visibility 10.0 miles
Clouds Overcast 2800 ft
Windchill 22 °F
Dew Point 23 °F
Humidity 75%
Rainfall 0.00 in
Snow Depth Not available.
7:56 AM 5:07 PM
Waxing Crescent, 51% visible
SPECI KBTL 071022Z AUTO 25015KT 10SM OVC028 M01/M06 A2995 RMK AO2 T10111056
Pressure 29.95 in
Visibility 10.0 miles
Clouds Overcast 2800 ft
Windchill 22 °F
Dew Point 23 °F
Humidity 75%
Rainfall 0.00 in
Snow Depth Not available.
7:56 AM 5:07 PM
Waxing Crescent, 51% visible
SPECI KBTL 071022Z AUTO 25015KT 10SM OVC028 M01/M06 A2995 RMK AO2 T10111056

10-Day Weather Forecast

Almanac

Astronomy

Dec. 07, 2016 Rise Set
Actual Time
Civil Twilight
Nautical Twilight
Astronomical Twilight
Moon
Length of Visible Light
Length of Day
Tomorrow will be .
, % of the Moon is Illuminated

Today's Extremes

State Highs State Lows

Community

WunderPhotos

Upload Photos

1,956,111 photos uploaded!

WunderBlog® & News

Nearby

Air Quality

  Air Quality AQ Index Pollutant
Not available.

Snow Depth

Station Depth Elevation

Earthquake Activity

City Distance Mag. Time & Date
Minimum magnitude displayed is 2.5.

Coastal Water Temperatures

Place Temperature

Stations

Nearby Weather Stations

Station Location Temp. Windchill Dew Point Humidity Wind Precip. Elev Updated Type
                   

Watches & Warnings

Winter Weather Advisory
Issued: 3:58 AM EST Dec. 7, 2016 – National Weather Service

... Winter Weather Advisory in effect from midnight tonight to
4 PM EST Friday...

The National Weather Service in Grand Rapids has issued a Winter
Weather Advisory... which is in effect from midnight tonight to
4 PM EST Friday.

Hazardous weather...

* snow showers will increase in coverage and intensity after
   midnight tonight.

* Snowfall totals of 3 to 6 inches are possible by Friday
   evening.

* Gusty west to northwest winds 15 to 30 mph will produce
   blowing and drifting snow.

* The heavy lake effect snow bands will cause abrupt changes in
   visibility with near whiteout conditions possible.

Impacts...

* roads will become snow covered and slippery... especially for
   the Thursday afternoon and Friday morning commutes.

* Commute times to destinations will become longer than normal.

* Visibilities could drop to near zero at times under the
   heavier bands and in blowing and drifting snow.

Precautionary/preparedness actions...

* the Michigan Department of Transportation reminds motorists
   to adjust speeds based on the conditions... and to take it
   slow in ice and snow.

* Weather preparedness information is available on line at
   www.Ready.Gov/winter.



Duke